createdAt,value
2018-09-24T00:00:37.474Z,9.50
2018-09-24T00:03:07.264Z,9.50
2018-09-24T00:05:36.957Z,9.40
2018-09-24T00:08:07.040Z,9.40
2018-09-24T00:10:36.878Z,9.30
2018-09-24T00:13:06.589Z,9.30
2018-09-24T00:15:36.557Z,9.30
2018-09-24T00:18:06.269Z,9.30
2018-09-24T00:20:35.960Z,9.20
2018-09-24T00:23:05.737Z,9.20
2018-09-24T00:25:35.494Z,9.20
2018-09-24T00:28:05.567Z,9.10
2018-09-24T00:30:35.259Z,9.10
2018-09-24T00:33:04.965Z,9.10
2018-09-24T00:35:34.697Z,9.10
2018-09-24T00:38:04.454Z,9.00
2018-09-24T00:40:34.155Z,8.90
2018-09-24T00:43:04.013Z,8.90
2018-09-24T00:45:33.789Z,8.80
2018-09-24T00:48:03.489Z,8.80
2018-09-24T00:50:33.165Z,8.80
2018-09-24T00:53:02.877Z,8.70
2018-09-24T00:55:33.073Z,8.70
2018-09-24T00:58:02.745Z,8.70
2018-09-24T01:00:32.437Z,8.70
2018-09-24T01:03:02.164Z,8.60
2018-09-24T01:05:31.859Z,8.70
2018-09-24T01:08:01.749Z,8.70
2018-09-24T01:10:31.645Z,8.80
2018-09-24T01:13:01.384Z,8.70
2018-09-24T01:15:31.165Z,8.70
2018-09-24T01:18:00.872Z,8.70
2018-09-24T01:20:30.599Z,8.70
2018-09-24T01:23:00.313Z,8.70
2018-09-24T01:25:30.025Z,8.70
2018-09-24T01:27:59.729Z,8.70
2018-09-24T01:30:29.442Z,8.70
2018-09-24T01:32:59.120Z,8.80
2018-09-24T01:35:28.964Z,8.80
2018-09-24T01:37:58.668Z,8.80
2018-09-24T01:40:28.484Z,8.80
2018-09-24T01:42:58.157Z,8.80
2018-09-24T01:45:27.935Z,8.80
2018-09-24T01:47:57.609Z,8.70
2018-09-24T01:50:27.348Z,8.70
2018-09-24T01:53:01.832Z,8.70
2018-09-24T01:55:31.552Z,8.80
2018-09-24T01:58:01.353Z,8.80
2018-09-24T02:00:31.181Z,8.80
2018-09-24T02:03:00.872Z,8.80
2018-09-24T02:05:30.568Z,8.80
2018-09-24T02:08:00.277Z,8.70
2018-09-24T02:10:29.959Z,8.70
2018-09-24T02:12:59.626Z,8.70
2018-09-24T02:15:31.788Z,8.70
2018-09-24T02:18:01.604Z,8.80
2018-09-24T02:20:31.938Z,8.80
2018-09-24T02:23:01.894Z,8.80
2018-09-24T02:25:31.967Z,8.80
2018-09-24T02:28:01.675Z,8.80
2018-09-24T02:30:31.470Z,8.90
2018-09-24T02:33:02.109Z,8.90
2018-09-24T02:35:32.025Z,8.90
2018-09-24T02:38:01.722Z,8.90
2018-09-24T02:40:31.405Z,8.80
2018-09-24T02:43:01.272Z,8.80
2018-09-24T02:45:31.004Z,8.80
2018-09-24T02:48:00.763Z,8.70
2018-09-24T02:50:37.149Z,8.70
2018-09-24T02:53:08.030Z,8.70
2018-09-24T02:55:37.835Z,8.70
2018-09-24T02:58:08.409Z,8.60
2018-09-24T03:00:38.592Z,8.50
2018-09-24T03:03:11.937Z,8.40
2018-09-24T03:05:42.209Z,8.40
2018-09-24T03:08:13.412Z,8.40
2018-09-24T03:10:43.630Z,8.40
2018-09-24T03:13:13.666Z,8.30
2018-09-24T03:15:43.651Z,8.10
2018-09-24T03:18:15.483Z,8.00
2018-09-24T03:20:45.925Z,8.00
2018-09-24T03:23:15.648Z,8.00
2018-09-24T03:25:45.397Z,8.00
2018-09-24T03:28:15.112Z,7.90
2018-09-24T03:30:45.205Z,8.00
2018-09-24T03:33:14.968Z,8.00
2018-09-24T03:35:45.289Z,8.00
2018-09-24T03:38:14.990Z,8.00
2018-09-24T03:40:44.817Z,8.00
2018-09-24T03:43:14.501Z,7.90
2018-09-24T03:45:44.172Z,7.90
2018-09-24T03:48:13.793Z,7.90
2018-09-24T03:50:43.481Z,7.90
2018-09-24T03:53:13.503Z,7.90
2018-09-24T03:55:43.216Z,7.80
2018-09-24T03:58:12.903Z,7.80
2018-09-24T04:00:43.250Z,7.80
2018-09-24T04:03:12.981Z,7.80
2018-09-24T04:05:47.881Z,7.80
2018-09-24T04:08:22.579Z,7.80
2018-09-24T04:10:57.434Z,7.70
2018-09-24T04:13:32.313Z,7.70
2018-09-24T04:16:07.241Z,7.70
2018-09-24T04:18:42.134Z,7.70
2018-09-24T04:21:17.109Z,7.70
2018-09-24T04:23:51.871Z,7.60
2018-09-24T04:26:26.763Z,7.60
2018-09-24T04:29:01.627Z,7.50
2018-09-24T04:31:36.364Z,7.50
2018-09-24T04:34:11.034Z,7.60
2018-09-24T04:36:45.896Z,7.60
2018-09-24T04:39:20.620Z,7.60
2018-09-24T04:41:55.668Z,7.60
2018-09-24T04:44:31.289Z,7.60
2018-09-24T04:47:06.109Z,7.70
2018-09-24T04:49:40.992Z,7.70
2018-09-24T04:52:16.032Z,7.80
2018-09-24T04:54:51.105Z,7.80
2018-09-24T04:57:25.900Z,7.80
2018-09-24T05:00:00.753Z,7.90
2018-09-24T05:02:35.480Z,8.00
2018-09-24T05:05:10.645Z,8.10
2018-09-24T05:07:45.389Z,8.10
2018-09-24T05:10:20.192Z,8.20
2018-09-24T05:12:54.968Z,8.20
2018-09-24T05:15:29.867Z,8.30
2018-09-24T05:18:04.713Z,8.30
2018-09-24T05:20:39.492Z,8.20
2018-09-24T05:23:14.490Z,8.20
2018-09-24T05:25:49.331Z,8.00
2018-09-24T05:28:24.277Z,8.00
2018-09-24T05:30:59.243Z,8.00
2018-09-24T05:33:34.216Z,7.90
2018-09-24T05:36:08.943Z,7.90
2018-09-24T05:38:43.853Z,7.80
2018-09-24T05:41:18.705Z,7.80
2018-09-24T05:43:53.459Z,7.70
2018-09-24T05:46:28.237Z,7.70
2018-09-24T05:49:03.753Z,7.80
2018-09-24T05:51:39.040Z,7.90
2018-09-24T05:54:13.802Z,8.00
2018-09-24T05:56:48.543Z,8.10
2018-09-24T05:59:23.440Z,8.30
2018-09-24T06:01:58.237Z,8.40
2018-09-24T06:04:33.194Z,8.60
2018-09-24T06:07:07.864Z,8.60
2018-09-24T06:09:42.545Z,8.70
2018-09-24T06:12:17.263Z,8.70
2018-09-24T06:14:52.196Z,8.80
2018-09-24T06:17:27.126Z,9.00
2018-09-24T06:20:01.845Z,9.20
2018-09-24T06:22:36.620Z,9.40
2018-09-24T06:25:11.448Z,9.60
2018-09-24T06:27:46.259Z,9.60
2018-09-24T06:30:21.237Z,9.60
2018-09-24T06:32:55.968Z,9.60
2018-09-24T06:35:30.882Z,9.50
2018-09-24T06:38:05.688Z,9.40
2018-09-24T06:40:40.474Z,9.30
2018-09-24T06:43:15.119Z,9.40
2018-09-24T06:45:49.891Z,9.40
2018-09-24T06:48:24.597Z,9.60
2018-09-24T06:50:59.312Z,9.60
2018-09-24T06:53:33.935Z,9.50
2018-09-24T06:56:08.610Z,9.30
2018-09-24T06:58:43.597Z,9.10
2018-09-24T07:01:18.260Z,8.90
2018-09-24T07:03:52.925Z,8.80
2018-09-24T07:06:27.625Z,8.90
2018-09-24T07:09:02.582Z,8.90
2018-09-24T07:11:37.288Z,9.00
2018-09-24T07:14:12.151Z,9.10
2018-09-24T07:16:47.035Z,9.10
2018-09-24T07:19:21.900Z,9.10
2018-09-24T07:21:56.763Z,9.20
2018-09-24T07:24:31.680Z,9.40
2018-09-24T07:27:07.482Z,9.60
2018-09-24T07:29:42.965Z,9.70
2018-09-24T07:32:18.505Z,9.70
2018-09-24T07:34:53.180Z,9.70
2018-09-24T07:37:28.098Z,9.70
2018-09-24T07:40:02.831Z,9.70
2018-09-24T07:42:37.610Z,9.60
2018-09-24T07:45:12.540Z,9.50
2018-09-24T07:47:47.288Z,9.50
2018-09-24T07:50:22.060Z,9.70
2018-09-24T07:52:56.800Z,9.90
2018-09-24T07:55:31.797Z,10.20
2018-09-24T07:58:06.474Z,10.50
2018-09-24T08:00:41.285Z,10.70
2018-09-24T08:03:16.114Z,11.10
2018-09-24T08:05:50.885Z,11.20
2018-09-24T08:08:25.601Z,11.30
2018-09-24T08:11:00.460Z,11.20
2018-09-24T08:13:35.331Z,11.20
2018-09-24T08:16:10.190Z,11.10
2018-09-24T08:18:44.973Z,11.00
2018-09-24T08:21:19.708Z,11.00
2018-09-24T08:23:54.657Z,11.10
2018-09-24T08:26:29.567Z,11.10
2018-09-24T08:29:05.328Z,11.00
2018-09-24T08:31:40.216Z,10.90
2018-09-24T08:34:15.091Z,10.90
2018-09-24T08:36:49.874Z,11.00
2018-09-24T08:39:24.547Z,11.10
2018-09-24T08:41:59.321Z,11.30
2018-09-24T08:44:34.007Z,11.50
2018-09-24T08:47:08.929Z,11.60
2018-09-24T08:49:43.826Z,11.50
2018-09-24T08:52:18.608Z,11.60
2018-09-24T08:54:53.429Z,11.70
2018-09-24T08:57:28.159Z,11.70
2018-09-24T09:00:02.889Z,11.60
2018-09-24T09:02:38.058Z,11.70
2018-09-24T09:05:13.011Z,11.70
2018-09-24T09:07:48.341Z,11.60
2018-09-24T09:10:23.100Z,11.50
2018-09-24T09:12:57.920Z,11.50
2018-09-24T09:15:32.924Z,11.50
2018-09-24T09:18:07.700Z,11.50
2018-09-24T09:20:42.393Z,11.50
2018-09-24T09:23:17.188Z,11.60
2018-09-24T09:25:51.980Z,11.80
2018-09-24T09:28:27.000Z,12.00
2018-09-24T09:31:01.959Z,12.20
2018-09-24T09:33:36.832Z,12.40
2018-09-24T09:36:11.644Z,12.70
2018-09-24T09:38:46.674Z,12.90
2018-09-24T09:41:21.500Z,13.10
2018-09-24T09:43:56.388Z,13.40
2018-09-24T09:46:31.162Z,13.80
2018-09-24T09:49:05.949Z,14.00
2018-09-24T09:51:40.621Z,14.20
2018-09-24T09:54:15.434Z,14.30
2018-09-24T09:56:50.188Z,14.30
2018-09-24T09:59:24.954Z,14.10
2018-09-24T10:01:59.760Z,13.60
2018-09-24T10:04:34.621Z,13.30
2018-09-24T10:07:09.447Z,12.90
2018-09-24T10:09:44.690Z,12.50
2018-09-24T10:12:20.449Z,12.10
2018-09-24T10:14:55.212Z,11.80
2018-09-24T10:17:30.092Z,11.60
2018-09-24T10:20:05.495Z,11.40
2018-09-24T10:22:40.195Z,11.30
2018-09-24T10:25:15.145Z,11.20
2018-09-24T10:27:50.063Z,11.10
2018-09-24T10:30:24.958Z,11.20
2018-09-24T10:32:59.690Z,11.60
2018-09-24T10:35:34.459Z,12.20
2018-09-24T10:38:09.299Z,12.50
2018-09-24T10:40:44.178Z,12.60
2018-09-24T10:43:19.026Z,12.50
2018-09-24T10:45:53.682Z,12.20
2018-09-24T10:48:28.494Z,12.10
2018-09-24T10:51:03.181Z,11.90
2018-09-24T10:53:38.093Z,11.90
2018-09-24T10:56:12.831Z,11.90
2018-09-24T10:58:47.653Z,11.90
2018-09-24T11:01:22.549Z,11.90
2018-09-24T11:03:57.373Z,12.00
2018-09-24T11:06:32.282Z,12.20
2018-09-24T11:09:07.985Z,12.50
2018-09-24T11:11:42.621Z,12.50
2018-09-24T11:14:17.395Z,12.50
2018-09-24T11:16:53.249Z,12.50
2018-09-24T11:19:28.024Z,12.50
2018-09-24T11:22:02.792Z,12.60
2018-09-24T11:24:37.647Z,12.80
2018-09-24T11:27:12.460Z,13.20
2018-09-24T11:29:47.254Z,13.40
2018-09-24T11:32:21.999Z,13.40
2018-09-24T11:34:57.074Z,13.10
2018-09-24T11:37:31.834Z,12.90
2018-09-24T11:40:06.740Z,12.70
2018-09-24T11:42:41.350Z,12.60
2018-09-24T11:45:16.198Z,12.50
2018-09-24T11:47:50.907Z,12.50
2018-09-24T11:50:25.608Z,12.80
2018-09-24T11:53:00.415Z,13.10
2018-09-24T11:55:35.192Z,13.10
2018-09-24T11:58:10.133Z,13.10
2018-09-24T12:00:44.883Z,13.20
2018-09-24T12:03:19.805Z,13.30
2018-09-24T12:05:54.555Z,13.40
2018-09-24T12:08:29.222Z,13.50
2018-09-24T12:11:04.042Z,13.70
2018-09-24T12:13:38.791Z,14.30
2018-09-24T12:16:13.787Z,14.30
2018-09-24T12:18:48.489Z,13.90
2018-09-24T12:21:23.240Z,13.50
2018-09-24T12:23:58.128Z,13.30
2018-09-24T12:26:33.071Z,13.60
2018-09-24T12:29:07.848Z,15.90
2018-09-24T12:31:44.175Z,16.20
2018-09-24T12:34:19.108Z,15.60
2018-09-24T12:36:53.905Z,14.90
2018-09-24T12:39:28.793Z,14.30
2018-09-24T12:42:03.656Z,13.60
2018-09-24T12:44:38.443Z,13.10
2018-09-24T12:47:13.379Z,12.70
2018-09-24T12:49:48.386Z,12.40
2018-09-24T12:52:30.072Z,12.30
2018-09-24T12:55:04.767Z,12.40
2018-09-24T12:57:39.714Z,15.00
2018-09-24T13:00:14.692Z,19.80
2018-09-24T13:02:49.643Z,23.80
2018-09-24T13:05:24.420Z,24.10
2018-09-24T13:07:59.360Z,22.00
2018-09-24T13:10:34.240Z,19.90
2018-09-24T13:13:09.119Z,18.20
2018-09-24T13:15:43.892Z,18.40
2018-09-24T13:18:18.738Z,22.90
2018-09-24T13:20:53.613Z,25.50
2018-09-24T13:23:28.284Z,24.50
2018-09-24T13:26:03.183Z,27.00
2018-09-24T13:28:38.456Z,27.80
2018-09-24T13:31:13.283Z,25.20
2018-09-24T13:33:48.064Z,23.20
2018-09-24T13:36:23.616Z,21.30
2018-09-24T13:38:58.386Z,19.30
2018-09-24T13:41:33.203Z,17.70
2018-09-24T13:44:08.624Z,17.90
2018-09-24T13:46:43.836Z,18.40
2018-09-24T13:49:18.670Z,18.10
2018-09-24T13:51:53.452Z,18.10
2018-09-24T13:54:28.151Z,20.50
2018-09-24T13:57:02.984Z,22.10
2018-09-24T13:59:37.937Z,23.30
2018-09-24T14:02:12.891Z,22.10
2018-09-24T14:04:47.683Z,20.70
2018-09-24T14:07:22.497Z,21.30
2018-09-24T14:09:57.200Z,20.50
2018-09-24T14:12:31.957Z,20.50
2018-09-24T14:15:06.752Z,20.50
2018-09-24T14:17:41.442Z,21.10
2018-09-24T14:20:16.269Z,20.40
2018-09-24T14:22:50.916Z,19.10
2018-09-24T14:25:27.452Z,17.70
2018-09-24T14:28:02.826Z,16.70
2018-09-24T14:30:37.729Z,15.90
2018-09-24T14:33:12.500Z,15.70
2018-09-24T14:35:47.287Z,18.30
2018-09-24T14:38:22.164Z,22.20
2018-09-24T14:40:57.322Z,24.40
2018-09-24T14:43:32.079Z,22.90
2018-09-24T14:46:06.861Z,21.10
2018-09-24T14:48:41.775Z,20.10
2018-09-24T14:51:16.593Z,20.70
2018-09-24T14:53:51.544Z,19.40
2018-09-24T14:56:26.302Z,18.10
2018-09-24T14:59:01.163Z,17.00
2018-09-24T15:01:36.112Z,16.70
2018-09-24T15:04:11.023Z,18.70
2018-09-24T15:06:45.944Z,18.30
2018-09-24T15:09:20.738Z,17.20
2018-09-24T15:11:55.687Z,16.20
2018-09-24T15:14:30.496Z,16.30
2018-09-24T15:17:05.508Z,18.10
2018-09-24T15:19:40.292Z,21.40
2018-09-24T15:22:15.178Z,23.50
2018-09-24T15:24:49.846Z,25.40
2018-09-24T15:27:24.672Z,26.80
2018-09-24T15:29:59.368Z,27.70
2018-09-24T15:32:34.199Z,27.80
2018-09-24T15:35:09.008Z,26.40
2018-09-24T15:37:43.818Z,24.00
2018-09-24T15:40:18.431Z,21.70
2018-09-24T15:42:53.205Z,19.70
2018-09-24T15:45:27.965Z,18.00
2018-09-24T15:48:02.731Z,16.70
2018-09-24T15:50:37.527Z,15.70
2018-09-24T15:53:12.450Z,14.90
2018-09-24T15:55:47.259Z,14.30
2018-09-24T15:58:21.959Z,13.80
2018-09-24T16:00:56.871Z,13.40
2018-09-24T16:03:31.565Z,13.00
2018-09-24T16:06:06.310Z,12.60
2018-09-24T16:08:41.082Z,12.30
2018-09-24T16:11:15.893Z,12.00
2018-09-24T16:13:50.858Z,11.80
2018-09-24T16:16:25.688Z,11.60
2018-09-24T16:19:00.468Z,11.50
2018-09-24T16:21:35.328Z,11.30
2018-09-24T16:24:10.194Z,11.20
2018-09-24T16:26:45.012Z,11.10
2018-09-24T16:29:19.669Z,11.00
2018-09-24T16:31:54.390Z,10.90
2018-09-24T16:34:29.244Z,10.80
2018-09-24T16:37:03.996Z,10.70
2018-09-24T16:39:38.833Z,10.50
2018-09-24T16:42:13.604Z,10.30
2018-09-24T16:44:48.312Z,10.20
2018-09-24T16:47:23.056Z,10.00
2018-09-24T16:49:58.095Z,9.90
2018-09-24T16:52:32.765Z,9.80
2018-09-24T16:55:07.583Z,9.70
2018-09-24T16:57:42.286Z,9.70
2018-09-24T17:00:17.148Z,9.60
2018-09-24T17:02:51.872Z,9.50
2018-09-24T17:05:26.592Z,9.40
2018-09-24T17:08:01.365Z,9.30
2018-09-24T17:10:36.275Z,9.10
2018-09-24T17:13:11.159Z,9.00
2018-09-24T17:15:46.135Z,8.90
2018-09-24T17:18:20.879Z,8.80
2018-09-24T17:20:55.542Z,8.70
2018-09-24T17:23:30.383Z,8.60
2018-09-24T17:26:05.253Z,8.50
2018-09-24T17:28:39.998Z,8.50
2018-09-24T17:31:14.835Z,8.40
2018-09-24T17:34:06.203Z,8.30
2018-09-24T17:36:41.003Z,8.20
2018-09-24T17:39:15.715Z,8.10
2018-09-24T17:41:50.522Z,8.00
2018-09-24T17:44:25.452Z,8.00
2018-09-24T17:47:00.158Z,7.90
2018-09-24T17:49:34.878Z,7.80
2018-09-24T17:52:09.739Z,7.80
2018-09-24T17:54:44.582Z,7.70
2018-09-24T17:57:19.421Z,7.70
2018-09-24T17:59:54.285Z,7.60
2018-09-24T18:02:29.106Z,7.80
2018-09-24T18:05:03.899Z,7.90
2018-09-24T18:07:38.668Z,8.00
2018-09-24T18:10:13.644Z,8.00
2018-09-24T18:12:48.672Z,7.90
2018-09-24T18:15:23.620Z,7.80
2018-09-24T18:17:58.649Z,7.70
2018-09-24T18:20:33.421Z,7.50
2018-09-24T18:23:08.409Z,7.40
2018-09-24T18:25:44.144Z,7.40
2018-09-24T18:28:19.012Z,7.20
2018-09-24T18:30:53.845Z,7.20
2018-09-24T18:33:28.731Z,7.10
2018-09-24T18:36:03.564Z,7.00
2018-09-24T18:38:38.604Z,6.90
2018-09-24T18:41:13.408Z,6.80
2018-09-24T18:43:48.773Z,6.80
2018-09-24T18:46:23.670Z,6.80
2018-09-24T18:48:58.744Z,6.90
2018-09-24T18:51:33.499Z,7.10
2018-09-24T18:54:08.195Z,7.10
2018-09-24T18:56:43.100Z,7.00
2018-09-24T18:59:17.809Z,7.00
2018-09-24T19:01:52.905Z,6.90
2018-09-24T19:04:27.704Z,7.00
2018-09-24T19:07:02.484Z,6.90
2018-09-24T19:09:37.239Z,6.90
2018-09-24T19:12:11.979Z,6.90
2018-09-24T19:14:46.696Z,7.00
2018-09-24T19:17:21.515Z,7.00
2018-09-24T19:19:56.365Z,6.90
2018-09-24T19:22:31.190Z,6.90
2018-09-24T19:25:06.052Z,6.90
2018-09-24T19:27:40.932Z,6.80
2018-09-24T19:30:16.686Z,6.80
2018-09-24T19:32:51.551Z,6.70
2018-09-24T19:35:26.492Z,6.60
2018-09-24T19:38:01.227Z,6.50
2018-09-24T19:40:36.020Z,6.40
2018-09-24T19:43:11.241Z,6.30
2018-09-24T19:45:46.566Z,6.30
2018-09-24T19:48:21.677Z,6.30
2018-09-24T19:50:56.840Z,6.30
2018-09-24T19:53:31.943Z,6.30
2018-09-24T19:56:07.068Z,6.30
2018-09-24T19:58:42.150Z,6.30
2018-09-24T20:01:17.372Z,6.20
2018-09-24T20:03:52.331Z,6.20
2018-09-24T20:06:27.349Z,6.20
2018-09-24T20:09:02.428Z,6.10
2018-09-24T20:11:38.080Z,6.10
2018-09-24T20:14:14.083Z,6.10
2018-09-24T20:16:49.044Z,6.10
2018-09-24T20:19:24.054Z,6.00
2018-09-24T20:21:59.007Z,6.00
2018-09-24T20:24:34.012Z,6.00
2018-09-24T20:27:09.144Z,5.90
2018-09-24T20:29:44.155Z,5.90
2018-09-24T20:32:19.475Z,5.90
2018-09-24T20:34:54.383Z,5.80
2018-09-24T20:37:29.309Z,5.80
2018-09-24T20:40:04.211Z,5.70
2018-09-24T20:42:38.990Z,5.70
2018-09-24T20:45:14.021Z,5.70
2018-09-24T20:47:49.132Z,5.60
2018-09-24T20:50:23.960Z,5.60
2018-09-24T20:52:58.819Z,5.60
2018-09-24T20:55:33.579Z,5.60
2018-09-24T20:58:08.555Z,5.60
2018-09-24T21:00:43.553Z,5.60
2018-09-24T21:03:18.628Z,5.60
2018-09-24T21:05:53.749Z,5.50
2018-09-24T21:08:28.559Z,5.50
2018-09-24T21:11:03.505Z,5.60
2018-09-24T21:13:38.392Z,5.70
2018-09-24T21:16:13.302Z,5.80
2018-09-24T21:18:48.142Z,5.70
2018-09-24T21:21:22.883Z,5.70
2018-09-24T21:23:57.649Z,5.70
2018-09-24T21:26:32.421Z,5.70
2018-09-24T21:29:07.265Z,5.60
2018-09-24T21:31:42.096Z,5.60
2018-09-24T21:34:16.907Z,5.60
2018-09-24T21:36:51.662Z,5.50
2018-09-24T21:39:26.480Z,5.40
2018-09-24T21:42:01.241Z,5.40
2018-09-24T21:44:36.193Z,5.30
2018-09-24T21:47:11.044Z,5.20
2018-09-24T21:49:45.857Z,5.10
2018-09-24T21:52:20.627Z,5.00
2018-09-24T21:54:55.528Z,5.00
2018-09-24T21:57:30.384Z,5.00
2018-09-24T22:00:05.169Z,4.90
2018-09-24T22:02:39.935Z,4.90
2018-09-24T22:05:14.647Z,4.80
2018-09-24T22:07:49.623Z,4.90
2018-09-24T22:10:24.603Z,5.00
2018-09-24T22:12:59.532Z,5.00
2018-09-24T22:15:34.475Z,5.00
2018-09-24T22:18:09.206Z,5.00
2018-09-24T22:20:44.009Z,4.90
2018-09-24T22:23:18.698Z,4.90
2018-09-24T22:25:53.462Z,4.90
2018-09-24T22:28:28.284Z,4.90
2018-09-24T22:31:03.025Z,4.90
2018-09-24T22:33:37.960Z,5.00
2018-09-24T22:36:12.879Z,5.00
2018-09-24T22:38:47.610Z,5.20
2018-09-24T22:41:22.551Z,5.30
2018-09-24T22:43:57.459Z,5.50
2018-09-24T22:46:32.252Z,5.60
2018-09-24T22:49:07.155Z,5.60
2018-09-24T22:51:41.987Z,5.60
2018-09-24T22:54:16.937Z,5.60
2018-09-24T22:56:51.696Z,5.60
2018-09-24T22:59:26.654Z,5.50
2018-09-24T23:02:01.481Z,5.50
2018-09-24T23:04:36.187Z,5.50
2018-09-24T23:07:10.980Z,5.40
2018-09-24T23:09:45.777Z,5.40
2018-09-24T23:12:20.897Z,5.40
2018-09-24T23:14:55.649Z,5.40
2018-09-24T23:17:30.544Z,5.30
2018-09-24T23:20:05.435Z,5.30
2018-09-24T23:22:40.340Z,5.30
2018-09-24T23:25:15.271Z,5.20
2018-09-24T23:27:50.072Z,5.20
2018-09-24T23:30:24.838Z,5.30
2018-09-24T23:32:59.669Z,5.30
2018-09-24T23:35:34.433Z,5.30
2018-09-24T23:38:09.346Z,5.30
2018-09-24T23:40:44.232Z,5.30
2018-09-24T23:43:19.127Z,5.30
2018-09-24T23:45:54.080Z,5.30
2018-09-24T23:48:28.930Z,5.30
2018-09-24T23:51:03.620Z,5.30
2018-09-24T23:53:38.421Z,5.20
2018-09-24T23:56:13.253Z,5.20
2018-09-24T23:58:48.005Z,5.10
